createdAt,value
2018-04-19T00:01:07.599Z,12.26
2018-04-19T00:03:35.931Z,12.23
2018-04-19T00:06:04.270Z,12.21
2018-04-19T00:08:32.616Z,12.19
2018-04-19T00:11:00.979Z,12.15
2018-04-19T00:13:29.332Z,12.12
2018-04-19T00:15:57.658Z,12.07
2018-04-19T00:18:26.788Z,11.99
2018-04-19T00:20:55.129Z,12.00
2018-04-19T00:23:23.492Z,11.92
2018-04-19T00:25:51.836Z,11.90
2018-04-19T00:28:20.182Z,11.88
2018-04-19T00:30:48.520Z,11.82
2018-04-19T00:33:16.865Z,11.86
2018-04-19T00:35:45.203Z,11.85
2018-04-19T00:38:13.555Z,11.81
2018-04-19T00:40:41.902Z,11.78
2018-04-19T00:43:10.236Z,11.78
2018-04-19T00:45:38.563Z,11.73
2018-04-19T00:48:06.886Z,11.65
2018-04-19T00:50:35.259Z,11.62
2018-04-19T00:53:09.502Z,11.54
2018-04-19T00:55:37.845Z,11.52
2018-04-19T00:58:06.183Z,11.51
2018-04-19T01:00:34.528Z,11.49
2018-04-19T01:03:02.859Z,11.46
2018-04-19T01:05:31.216Z,11.42
2018-04-19T01:07:59.556Z,11.40
2018-04-19T01:10:27.895Z,11.35
2018-04-19T01:12:56.239Z,11.36
2018-04-19T01:15:24.599Z,11.30
2018-04-19T01:17:52.928Z,11.31
2018-04-19T01:20:21.336Z,11.30
2018-04-19T01:22:49.676Z,11.23
2018-04-19T01:25:18.026Z,11.19
2018-04-19T01:27:46.363Z,11.26
2018-04-19T01:30:14.725Z,11.23
2018-04-19T01:32:43.071Z,11.18
2018-04-19T01:35:11.409Z,11.14
2018-04-19T01:37:39.758Z,11.09
2018-04-19T01:40:08.086Z,11.07
2018-04-19T01:42:36.446Z,10.99
2018-04-19T01:45:04.780Z,10.93
2018-04-19T01:47:33.108Z,10.88
2018-04-19T01:50:01.439Z,10.84
2018-04-19T01:52:29.790Z,10.75
2018-04-19T01:54:58.128Z,10.76
2018-04-19T01:57:26.481Z,10.70
2018-04-19T01:59:54.824Z,10.71
2018-04-19T02:02:23.175Z,10.66
2018-04-19T02:04:51.537Z,10.66
2018-04-19T02:07:19.921Z,10.65
2018-04-19T02:09:48.255Z,10.63
2018-04-19T02:12:16.601Z,10.60
2018-04-19T02:14:44.980Z,10.59
2018-04-19T02:17:13.326Z,10.59
2018-04-19T02:19:41.702Z,10.59
2018-04-19T02:22:10.038Z,10.56
2018-04-19T02:24:38.383Z,10.54
2018-04-19T02:27:06.768Z,10.48
2018-04-19T02:29:35.103Z,10.52
2018-04-19T02:32:03.456Z,10.43
2018-04-19T02:34:31.812Z,10.40
2018-04-19T02:37:00.161Z,10.41
2018-04-19T02:39:28.487Z,10.37
2018-04-19T02:41:56.838Z,10.36
2018-04-19T02:44:25.184Z,10.35
2018-04-19T02:46:53.512Z,10.32
2018-04-19T02:49:21.921Z,10.27
2018-04-19T02:51:50.270Z,10.23
2018-04-19T02:54:18.632Z,10.23
2018-04-19T02:56:46.963Z,10.17
2018-04-19T02:59:16.267Z,10.11
2018-04-19T03:01:44.595Z,10.08
2018-04-19T03:04:12.992Z,10.03
2018-04-19T03:06:41.324Z,9.99
2018-04-19T03:09:09.648Z,9.95
2018-04-19T03:11:37.999Z,9.93
2018-04-19T03:14:06.329Z,9.93
2018-04-19T03:16:34.659Z,9.86
2018-04-19T03:19:03.009Z,9.86
2018-04-19T03:21:31.357Z,9.85
2018-04-19T03:23:59.687Z,9.84
2018-04-19T03:26:28.011Z,9.84
2018-04-19T03:28:56.392Z,9.86
2018-04-19T03:31:24.716Z,9.84
2018-04-19T03:33:53.079Z,9.78
2018-04-19T03:36:21.420Z,9.77
2018-04-19T03:38:49.756Z,9.73
2018-04-19T03:41:18.096Z,9.77
2018-04-19T03:43:46.440Z,9.79
2018-04-19T03:46:14.774Z,9.81
2018-04-19T03:48:43.110Z,9.80
2018-04-19T03:51:11.469Z,9.78
2018-04-19T03:53:39.795Z,9.75
2018-04-19T03:56:08.132Z,9.79
2018-04-19T03:58:36.477Z,9.70
2018-04-19T04:01:04.859Z,9.74
2018-04-19T04:03:33.147Z,9.70
2018-04-19T04:06:01.496Z,9.71
2018-04-19T04:08:29.827Z,9.69
2018-04-19T04:10:58.176Z,9.71
2018-04-19T04:13:26.507Z,9.69
2018-04-19T04:15:54.893Z,9.68
2018-04-19T04:18:34.899Z,9.70
2018-04-19T04:21:15.037Z,9.78
2018-04-19T04:23:52.089Z,9.85
2018-04-19T04:26:20.447Z,9.83
2018-04-19T04:28:48.810Z,9.82
2018-04-19T04:31:17.181Z,9.83
2018-04-19T04:33:45.503Z,9.85
2018-04-19T04:36:13.841Z,9.91
2018-04-19T04:38:42.188Z,9.94
2018-04-19T04:41:10.519Z,9.99
2018-04-19T04:43:38.882Z,10.05
2018-04-19T04:46:07.737Z,10.31
2018-04-19T04:48:36.076Z,10.71
2018-04-19T04:51:04.418Z,11.06
2018-04-19T04:53:32.765Z,10.97
2018-04-19T04:56:01.100Z,10.88
2018-04-19T04:58:29.452Z,10.79
2018-04-19T05:00:57.776Z,10.66
2018-04-19T05:03:26.128Z,10.65
2018-04-19T05:05:54.466Z,10.64
2018-04-19T05:08:22.817Z,10.61
2018-04-19T05:10:51.163Z,10.56
2018-04-19T05:13:19.516Z,10.67
2018-04-19T05:15:47.864Z,10.71
2018-04-19T05:18:16.199Z,10.72
2018-04-19T05:20:44.567Z,10.80
2018-04-19T05:23:12.921Z,10.76
2018-04-19T05:25:41.266Z,10.82
2018-04-19T05:28:09.628Z,10.99
2018-04-19T05:30:37.994Z,11.08
2018-04-19T05:33:06.329Z,11.26
2018-04-19T05:35:34.669Z,11.72
2018-04-19T05:38:03.012Z,12.67
2018-04-19T05:40:31.351Z,13.47
2018-04-19T05:43:06.437Z,14.19
2018-04-19T05:45:34.864Z,14.10
2018-04-19T05:48:03.203Z,14.18
2018-04-19T05:50:31.547Z,14.11
2018-04-19T05:52:59.883Z,14.60
2018-04-19T05:55:28.243Z,14.96
2018-04-19T05:57:56.580Z,14.95
2018-04-19T06:00:24.953Z,15.47
2018-04-19T06:02:53.276Z,15.43
2018-04-19T06:05:21.614Z,15.43
2018-04-19T06:07:49.945Z,16.61
2018-04-19T06:10:18.293Z,17.59
2018-04-19T06:12:46.625Z,18.58
2018-04-19T06:15:14.993Z,19.67
2018-04-19T06:17:43.302Z,19.96
2018-04-19T06:20:11.639Z,19.82
2018-04-19T06:22:39.979Z,20.35
2018-04-19T06:25:08.291Z,19.54
2018-04-19T06:27:36.640Z,19.00
2018-04-19T06:30:04.966Z,19.52
2018-04-19T06:32:33.306Z,20.40
2018-04-19T06:35:01.646Z,20.88
2018-04-19T06:37:30.060Z,21.19
2018-04-19T06:39:58.412Z,20.95
2018-04-19T06:42:26.743Z,21.19
2018-04-19T06:44:55.082Z,20.72
2018-04-19T06:47:23.439Z,21.44
2018-04-19T06:49:51.796Z,22.62
2018-04-19T06:52:20.121Z,21.92
2018-04-19T06:54:48.434Z,22.87
2018-04-19T06:57:16.779Z,23.14
2018-04-19T06:59:45.099Z,23.07
2018-04-19T07:02:13.455Z,22.84
2018-04-19T07:04:41.806Z,24.08
2018-04-19T07:07:10.131Z,24.30
2018-04-19T07:09:38.477Z,24.41
2018-04-19T07:12:06.811Z,24.43
2018-04-19T07:14:35.176Z,25.16
2018-04-19T07:17:03.480Z,25.46
2018-04-19T07:19:31.832Z,25.03
2018-04-19T07:22:00.174Z,24.79
2018-04-19T07:24:28.504Z,24.41
2018-04-19T07:26:56.840Z,25.16
2018-04-19T07:29:25.185Z,24.89
2018-04-19T07:31:53.532Z,24.85
2018-04-19T07:34:21.890Z,25.54
2018-04-19T07:36:50.226Z,25.54
2018-04-19T07:39:18.593Z,25.09
2018-04-19T07:41:46.934Z,25.63
2018-04-19T07:44:15.277Z,25.95
2018-04-19T07:46:43.616Z,26.81
2018-04-19T07:49:11.961Z,26.98
2018-04-19T07:51:40.298Z,27.81
2018-04-19T07:54:08.658Z,27.78
2018-04-19T07:56:37.020Z,27.82
2018-04-19T07:59:05.361Z,27.47
2018-04-19T08:01:33.706Z,27.39
2018-04-19T08:04:02.047Z,26.51
2018-04-19T08:06:30.401Z,26.21
2018-04-19T08:08:58.733Z,27.00
2018-04-19T08:11:27.080Z,27.48
2018-04-19T08:13:56.136Z,27.95
2018-04-19T08:16:24.518Z,27.85
2018-04-19T08:18:52.870Z,28.74
2018-04-19T08:21:21.216Z,28.31
2018-04-19T08:23:49.545Z,27.01
2018-04-19T08:26:17.961Z,28.05
2018-04-19T08:28:46.301Z,27.34
2018-04-19T08:31:14.635Z,27.19
2018-04-19T08:33:42.985Z,27.76
2018-04-19T08:36:11.328Z,28.93
2018-04-19T08:38:39.693Z,28.75
2018-04-19T08:41:08.031Z,30.33
2018-04-19T08:43:36.402Z,30.06
2018-04-19T08:46:04.747Z,30.19
2018-04-19T08:48:33.110Z,30.39
2018-04-19T08:51:01.445Z,30.67
2018-04-19T08:53:29.806Z,30.44
2018-04-19T08:55:58.137Z,30.14
2018-04-19T08:58:26.489Z,31.18
2018-04-19T09:00:54.830Z,31.46
2018-04-19T09:03:23.246Z,30.77
2018-04-19T09:05:51.599Z,30.49
2018-04-19T09:08:19.964Z,31.57
2018-04-19T09:10:48.308Z,31.78
2018-04-19T09:13:16.719Z,32.10
2018-04-19T09:15:45.098Z,31.93
2018-04-19T09:18:13.441Z,32.73
2018-04-19T09:20:41.789Z,32.36
2018-04-19T09:23:10.120Z,32.45
2018-04-19T09:25:38.468Z,30.71
2018-04-19T09:28:06.821Z,30.53
2018-04-19T09:30:35.199Z,31.24
2018-04-19T09:33:03.527Z,32.85
2018-04-19T09:35:31.893Z,34.14
2018-04-19T09:38:00.329Z,33.69
2018-04-19T09:40:28.679Z,33.51
2018-04-19T09:42:57.038Z,33.52
2018-04-19T09:45:25.389Z,32.73
2018-04-19T09:47:53.729Z,32.32
2018-04-19T09:50:22.097Z,32.81
2018-04-19T09:52:50.431Z,33.18
2018-04-19T09:55:18.785Z,32.92
2018-04-19T09:57:58.826Z,31.78
2018-04-19T10:00:27.236Z,30.94
2018-04-19T10:02:58.432Z,31.03
2018-04-19T10:05:26.774Z,32.24
2018-04-19T10:07:55.123Z,32.17
2018-04-19T10:10:23.489Z,31.16
2018-04-19T10:12:51.851Z,30.83
2018-04-19T10:15:20.186Z,30.48
2018-04-19T10:17:48.518Z,31.54
2018-04-19T10:20:16.862Z,31.59
2018-04-19T10:22:45.218Z,31.55
2018-04-19T10:25:13.552Z,31.23
2018-04-19T10:27:41.917Z,31.41
2018-04-19T10:30:10.294Z,31.09
2018-04-19T10:32:38.644Z,31.43
2018-04-19T10:35:06.987Z,31.27
2018-04-19T10:37:35.340Z,31.46
2018-04-19T10:40:03.720Z,31.95
2018-04-19T10:42:32.079Z,32.02
2018-04-19T10:45:00.424Z,31.73
2018-04-19T10:47:28.773Z,31.81
2018-04-19T10:49:57.140Z,31.71
2018-04-19T10:52:25.528Z,31.68
2018-04-19T10:54:53.873Z,31.47
2018-04-19T10:57:22.211Z,31.13
2018-04-19T10:59:50.559Z,31.48
2018-04-19T11:02:18.903Z,31.33
2018-04-19T11:04:47.248Z,31.23
2018-04-19T11:07:15.583Z,31.26
2018-04-19T11:09:43.956Z,31.97
2018-04-19T11:12:12.285Z,31.89
2018-04-19T11:14:40.641Z,31.64
2018-04-19T11:17:08.973Z,32.09
2018-04-19T11:19:37.339Z,31.59
2018-04-19T11:22:05.689Z,31.65
2018-04-19T11:24:34.046Z,31.03
2018-04-19T11:27:02.391Z,30.92
2018-04-19T11:29:30.728Z,31.75
2018-04-19T11:31:59.062Z,32.05
2018-04-19T11:34:27.458Z,31.61
2018-04-19T11:36:55.805Z,31.70
2018-04-19T11:39:24.164Z,31.84
2018-04-19T11:41:52.519Z,32.17
2018-04-19T11:46:55.366Z,32.16
2018-04-19T11:49:23.757Z,32.22
2018-04-19T11:51:52.089Z,32.67
2018-04-19T11:54:20.432Z,33.01
2018-04-19T11:56:48.776Z,32.67
2018-04-19T11:59:17.105Z,31.92
2018-04-19T12:01:45.462Z,32.37
2018-04-19T12:04:13.799Z,32.27
2018-04-19T12:06:42.156Z,32.42
2018-04-19T12:09:10.514Z,32.36
2018-04-19T12:11:38.882Z,32.43
2018-04-19T12:14:07.202Z,32.72
2018-04-19T12:16:35.567Z,32.39
2018-04-19T12:19:03.900Z,32.11
2018-04-19T12:21:32.246Z,32.23
2018-04-19T12:24:00.597Z,32.54
2018-04-19T12:26:28.946Z,33.08
2018-04-19T12:28:57.304Z,33.14
2018-04-19T12:31:25.651Z,33.26
2018-04-19T12:33:53.987Z,33.05
2018-04-19T12:36:22.344Z,32.36
2018-04-19T12:38:50.695Z,32.61
2018-04-19T12:41:19.035Z,32.61
2018-04-19T12:43:47.390Z,32.34
2018-04-19T12:46:15.738Z,31.89
2018-04-19T12:48:44.090Z,31.94
2018-04-19T12:51:12.414Z,32.22
2018-04-19T12:53:40.751Z,32.89
2018-04-19T12:56:09.091Z,32.98
2018-04-19T12:58:37.449Z,33.58
2018-04-19T13:01:05.778Z,33.59
2018-04-19T13:03:34.143Z,33.23
2018-04-19T13:06:02.476Z,33.17
2018-04-19T13:08:30.818Z,32.70
2018-04-19T13:10:59.272Z,32.24
2018-04-19T13:13:27.622Z,32.09
2018-04-19T13:15:55.985Z,31.95
2018-04-19T13:18:24.323Z,32.17
2018-04-19T13:20:52.688Z,32.88
2018-04-19T13:23:21.059Z,33.58
2018-04-19T13:25:49.407Z,33.37
2018-04-19T13:28:17.737Z,33.27
2018-04-19T13:30:46.077Z,33.06
2018-04-19T13:33:14.410Z,32.41
2018-04-19T13:35:42.751Z,32.40
2018-04-19T13:38:11.090Z,32.03
2018-04-19T13:40:39.461Z,32.26
2018-04-19T13:43:07.804Z,31.23
2018-04-19T13:45:36.171Z,31.35
2018-04-19T13:48:04.516Z,31.47
2018-04-19T13:50:32.884Z,31.85
2018-04-19T13:53:01.242Z,31.67
2018-04-19T13:55:29.585Z,32.16
2018-04-19T13:57:57.926Z,32.47
2018-04-19T14:00:26.282Z,32.87
2018-04-19T14:02:54.610Z,32.24
2018-04-19T14:05:22.948Z,32.16
2018-04-19T14:07:53.157Z,32.86
2018-04-19T14:10:21.488Z,32.40
2018-04-19T14:12:49.851Z,32.10
2018-04-19T14:15:18.187Z,31.85
2018-04-19T14:17:46.523Z,31.27
2018-04-19T14:20:14.848Z,31.32
2018-04-19T14:22:43.189Z,31.84
2018-04-19T14:25:11.511Z,31.93
2018-04-19T14:27:39.948Z,31.59
2018-04-19T14:30:08.272Z,32.19
2018-04-19T14:32:36.618Z,31.46
2018-04-19T14:35:05.182Z,31.69
2018-04-19T14:37:33.535Z,31.91
2018-04-19T14:40:01.864Z,31.82
2018-04-19T14:42:30.223Z,31.64
2018-04-19T14:44:58.585Z,31.20
2018-04-19T14:47:26.934Z,31.21
2018-04-19T14:49:55.259Z,30.99
2018-04-19T14:52:23.610Z,30.92
2018-04-19T14:54:51.941Z,30.95
2018-04-19T14:57:20.297Z,31.08
2018-04-19T14:59:48.622Z,30.80
2018-04-19T15:02:16.953Z,31.11
2018-04-19T15:04:45.284Z,30.76
2018-04-19T15:07:13.639Z,30.59
2018-04-19T15:09:41.978Z,30.51
2018-04-19T15:12:10.400Z,30.77
2018-04-19T15:14:38.727Z,30.79
2018-04-19T15:17:07.074Z,31.00
2018-04-19T15:19:35.428Z,30.54
2018-04-19T15:22:03.859Z,30.62
2018-04-19T15:24:32.202Z,30.24
2018-04-19T15:27:00.550Z,30.24
2018-04-19T15:29:28.890Z,30.26
2018-04-19T15:31:57.286Z,30.10
2018-04-19T15:34:25.560Z,30.13
2018-04-19T15:36:54.909Z,29.84
2018-04-19T15:39:23.246Z,29.73
2018-04-19T15:41:51.592Z,29.74
2018-04-19T15:44:19.936Z,29.41
2018-04-19T15:46:48.266Z,29.06
2018-04-19T15:49:16.602Z,28.79
2018-04-19T15:51:45.003Z,28.62
2018-04-19T15:54:13.350Z,28.10
2018-04-19T15:56:41.667Z,28.19
2018-04-19T15:59:10.009Z,28.16
2018-04-19T16:01:38.392Z,27.73
2018-04-19T16:04:06.715Z,28.16
2018-04-19T16:06:35.056Z,27.61
2018-04-19T16:09:03.423Z,27.52
2018-04-19T16:11:31.747Z,27.53
2018-04-19T16:14:00.085Z,27.27
2018-04-19T16:16:28.431Z,27.53
2018-04-19T16:18:56.816Z,27.61
2018-04-19T16:21:25.104Z,27.31
2018-04-19T16:23:53.462Z,27.31
2018-04-19T16:26:21.789Z,27.14
2018-04-19T16:28:50.121Z,27.03
2018-04-19T16:31:18.503Z,26.65
2018-04-19T16:33:46.826Z,26.81
2018-04-19T16:36:15.170Z,26.54
2018-04-19T16:38:43.541Z,26.32
2018-04-19T16:41:11.856Z,26.05
2018-04-19T16:43:40.189Z,25.81
2018-04-19T16:46:08.525Z,25.84
2018-04-19T16:48:36.850Z,25.67
2018-04-19T16:51:05.188Z,25.60
2018-04-19T16:53:33.523Z,25.53
2018-04-19T16:56:01.918Z,25.61
2018-04-19T16:58:30.208Z,25.45
2018-04-19T17:00:58.587Z,25.39
2018-04-19T17:03:26.968Z,25.39
2018-04-19T17:05:55.273Z,25.12
2018-04-19T17:08:23.611Z,25.08
2018-04-19T17:10:52.094Z,25.01
2018-04-19T17:13:21.529Z,24.89
2018-04-19T17:15:49.841Z,24.75
2018-04-19T17:18:18.283Z,24.55
2018-04-19T17:20:46.704Z,24.47
2018-04-19T17:23:15.073Z,24.30
2018-04-19T17:25:43.404Z,24.24
2018-04-19T17:28:12.647Z,23.95
2018-04-19T17:30:40.974Z,23.96
2018-04-19T17:33:09.292Z,23.76
2018-04-19T17:35:37.624Z,23.71
2018-04-19T17:38:05.971Z,23.55
2018-04-19T17:40:34.305Z,23.46
2018-04-19T17:43:02.653Z,23.28
2018-04-19T17:45:30.986Z,23.28
2018-04-19T17:47:59.407Z,23.10
2018-04-19T17:50:27.679Z,23.00
2018-04-19T17:52:56.018Z,22.87
2018-04-19T17:55:24.376Z,22.79
2018-04-19T17:57:52.726Z,22.68
2018-04-19T18:00:21.047Z,22.58
2018-04-19T18:02:49.407Z,22.42
2018-04-19T18:05:17.755Z,22.30
2018-04-19T18:07:46.099Z,22.20
2018-04-19T18:10:14.418Z,22.04
2018-04-19T18:12:42.744Z,21.88
2018-04-19T18:15:15.587Z,21.73
2018-04-19T18:17:43.905Z,21.57
2018-04-19T18:20:12.246Z,21.47
2018-04-19T18:22:40.588Z,21.37
2018-04-19T18:25:08.930Z,21.22
2018-04-19T18:27:37.265Z,21.11
2018-04-19T18:30:05.611Z,21.09
2018-04-19T18:32:33.942Z,20.97
2018-04-19T18:35:02.289Z,20.90
2018-04-19T18:37:30.614Z,20.80
2018-04-19T18:39:58.955Z,20.75
2018-04-19T18:42:27.290Z,20.70
2018-04-19T18:44:55.644Z,20.62
2018-04-19T18:47:23.964Z,20.46
2018-04-19T18:49:52.338Z,20.37
2018-04-19T18:52:20.673Z,20.30
2018-04-19T18:54:49.063Z,20.17
2018-04-19T18:57:17.429Z,20.15
2018-04-19T18:59:45.768Z,20.13
2018-04-19T19:02:14.107Z,20.08
2018-04-19T19:04:42.432Z,19.96
2018-04-19T19:07:10.755Z,19.86
2018-04-19T19:09:39.107Z,19.83
2018-04-19T19:12:07.455Z,19.69
2018-04-19T19:14:36.626Z,19.63
2018-04-19T19:17:16.937Z,19.66
2018-04-19T19:19:57.039Z,19.71
2018-04-19T19:22:25.385Z,19.74
2018-04-19T19:24:53.707Z,19.74
2018-04-19T19:27:22.101Z,19.77
2018-04-19T19:29:50.449Z,19.80
2018-04-19T19:32:18.808Z,19.74
2018-04-19T19:34:47.182Z,19.66
2018-04-19T19:37:15.545Z,19.56
2018-04-19T19:39:43.885Z,19.46
2018-04-19T19:42:12.217Z,19.32
2018-04-19T19:44:42.227Z,19.17
2018-04-19T19:47:12.280Z,19.03
2018-04-19T19:49:40.701Z,18.88
2018-04-19T19:52:09.057Z,18.79
2018-04-19T19:54:37.398Z,18.59
2018-04-19T19:57:05.743Z,18.56
2018-04-19T19:59:34.103Z,18.37
2018-04-19T20:02:02.448Z,18.30
2018-04-19T20:04:30.804Z,18.22
2018-04-19T20:06:59.144Z,18.11
2018-04-19T20:09:27.475Z,17.99
2018-04-19T20:11:55.831Z,18.07
2018-04-19T20:14:24.234Z,18.09
2018-04-19T20:16:52.582Z,18.04
2018-04-19T20:19:20.925Z,17.99
2018-04-19T20:21:49.353Z,17.97
2018-04-19T20:24:17.700Z,17.89
2018-04-19T20:26:46.054Z,17.81
2018-04-19T20:29:14.385Z,17.76
2018-04-19T20:31:42.737Z,17.75
2018-04-19T20:34:11.684Z,17.74
2018-04-19T20:36:40.053Z,17.69
2018-04-19T20:39:08.388Z,17.68
2018-04-19T20:41:44.945Z,17.71
2018-04-19T20:44:13.986Z,17.69
2018-04-19T20:46:42.329Z,17.60
2018-04-19T20:49:10.753Z,17.58
2018-04-19T20:51:39.145Z,17.52
2018-04-19T20:54:07.478Z,17.50
2018-04-19T20:56:35.833Z,17.45
2018-04-19T20:59:05.036Z,17.39
2018-04-19T21:01:33.363Z,17.38
2018-04-19T21:04:01.717Z,17.32
2018-04-19T21:06:30.058Z,17.22
2018-04-19T21:08:58.415Z,17.16
2018-04-19T21:11:28.558Z,17.07
2018-04-19T21:13:56.903Z,17.01
2018-04-19T21:16:25.289Z,16.92
2018-04-19T21:18:53.640Z,16.82
2018-04-19T21:21:21.974Z,16.79
2018-04-19T21:23:50.332Z,16.75
2018-04-19T21:26:18.707Z,16.78
2018-04-19T21:28:47.045Z,16.70
2018-04-19T21:31:15.379Z,16.66
2018-04-19T21:33:43.753Z,16.68
2018-04-19T21:36:12.077Z,16.65
2018-04-19T21:38:40.759Z,16.50
2018-04-19T21:41:09.109Z,16.50
2018-04-19T21:43:37.460Z,16.50
2018-04-19T21:46:05.805Z,16.42
2018-04-19T21:48:34.131Z,16.33
2018-04-19T21:51:02.491Z,16.30
2018-04-19T21:53:30.866Z,16.30
2018-04-19T21:55:59.204Z,16.32
2018-04-19T21:58:27.539Z,16.20
2018-04-19T22:00:55.899Z,16.19
2018-04-19T22:03:24.249Z,16.15
2018-04-19T22:05:52.647Z,16.06
2018-04-19T22:08:20.986Z,15.98
2018-04-19T22:10:49.368Z,15.96
2018-04-19T22:13:17.861Z,15.88
2018-04-19T22:15:46.301Z,15.84
2018-04-19T22:18:14.628Z,15.78
2018-04-19T22:20:42.964Z,15.78
2018-04-19T22:23:11.310Z,15.77
2018-04-19T22:25:39.665Z,15.78
2018-04-19T22:28:08.011Z,15.81
2018-04-19T22:30:36.355Z,15.80
2018-04-19T22:33:04.696Z,15.84
2018-04-19T22:35:33.036Z,15.82
2018-04-19T22:38:01.515Z,15.71
2018-04-19T22:40:29.841Z,15.70
2018-04-19T22:42:58.200Z,15.61
2018-04-19T22:45:29.827Z,15.58
2018-04-19T22:47:58.237Z,15.58
2018-04-19T22:50:26.520Z,15.52
2018-04-19T22:52:54.870Z,15.46
2018-04-19T22:55:23.216Z,15.45
2018-04-19T22:57:51.568Z,15.43
2018-04-19T23:00:19.913Z,15.29
2018-04-19T23:02:48.276Z,15.19
2018-04-19T23:05:16.622Z,15.09
2018-04-19T23:07:44.977Z,15.05
2018-04-19T23:10:13.314Z,15.03
2018-04-19T23:12:41.671Z,14.95
2018-04-19T23:15:10.013Z,14.87
2018-04-19T23:17:38.401Z,14.83
2018-04-19T23:20:06.697Z,14.82
2018-04-19T23:22:35.029Z,14.72
2018-04-19T23:25:03.412Z,14.63
2018-04-19T23:27:31.721Z,14.58
2018-04-19T23:30:00.122Z,14.57
2018-04-19T23:32:28.464Z,14.51
2018-04-19T23:34:56.801Z,14.51
2018-04-19T23:37:25.123Z,14.48
2018-04-19T23:39:53.455Z,14.47
2018-04-19T23:42:21.787Z,14.44
2018-04-19T23:44:50.128Z,14.44
2018-04-19T23:47:18.463Z,14.45
2018-04-19T23:49:46.820Z,14.42
2018-04-19T23:52:15.148Z,14.39
2018-04-19T23:54:43.503Z,14.36
2018-04-19T23:57:11.920Z,14.37
2018-04-19T23:59:40.264Z,14.34
